Terminal Aerodrome Forecast
Issued by NWS

Home | Current Version | Previous Version | Graphics & Text | Print | Product List | Glossary On
Versions: 1 2 3 4 5 6 7 8 9 10 11 12 13 14 15 16 17 18 19 20
384
FTUS43 KFGF 041733
TAFBJI
TAF
KBJI 041733Z 0418/0518 30006KT P6SM OVC025
      TEMPO 0418/0421 5SM -SN OVC015
     FM050200 VRB03KT P6SM BKN120
     FM051500 18004KT P6SM OVC015=

USA.gov is the U.S. government's official web portal to all federal, state and local government web resources and services.